Time;durP1;ratioP1;P1;durP2;ratioP2;P2;SDS_P1;SDS_P2;PMS_P1;PMS_P2;Temp;Humidity;BMP_temperature;BMP_pressure;BME280_temperature;BME280_humidity;BME280_pressure;Samples;Min_cycle;Max_cycle;Signal;HPM_P1;HPM_P2
2024/03/31 00:00:26;;;;;;;6.80;5.60;;;13.50;99.90;;;;;;4959272;28;21278;-32
2024/03/31 00:02:52;;;;;;;6.30;5.67;;;13.50;99.90;;;;;;4975859;28;20440;-30
2024/03/31 00:05:21;;;;;;;6.50;5.57;;;13.50;99.90;;;;;;4978297;28;20438;-30
2024/03/31 00:07:47;;;;;;;6.47;4.63;;;13.50;99.90;;;;;;4977104;28;20468;-27
2024/03/31 00:10:15;;;;;;;5.47;4.93;;;13.50;99.90;;;;;;4976786;28;20427;-30
2024/03/31 00:12:44;;;;;;;7.23;5.43;;;13.50;99.90;;;;;;4959902;28;20441;-31
2024/03/31 00:15:11;;;;;;;5.60;4.83;;;13.50;99.90;;;;;;4976698;28;20441;-34
2024/03/31 00:17:36;;;;;;;6.83;5.87;;;13.50;99.90;;;;;;4978052;28;20441;-29
2024/03/31 00:20:03;;;;;;;5.30;4.60;;;13.50;99.90;;;;;;4978443;28;20964;-33
2024/03/31 00:22:31;;;;;;;5.07;4.57;;;13.50;99.90;;;;;;4972205;28;20426;-32
2024/03/31 00:25:00;;;;;;;6.87;5.40;;;13.40;99.90;;;;;;4978058;28;21323;-30
2024/03/31 00:27:26;;;;;;;7.80;5.10;;;13.40;99.90;;;;;;4977179;28;20452;-34
2024/03/31 00:29:55;;;;;;;6.50;5.30;;;13.40;99.90;;;;;;4977892;28;21095;-31
2024/03/31 00:32:24;;;;;;;5.77;5.27;;;13.40;99.90;;;;;;4958078;28;20469;-33
2024/03/31 00:34:50;;;;;;;7.20;6.00;;;13.40;99.90;;;;;;4976866;28;20417;-30
2024/03/31 00:37:19;;;;;;;7.10;5.83;;;13.40;99.90;;;;;;4976333;28;20453;-31
2024/03/31 00:39:45;;;;;;;6.03;5.03;;;13.40;99.90;;;;;;4978042;28;20483;-29
2024/03/31 00:42:11;;;;;;;6.67;5.63;;;13.40;99.90;;;;;;4975818;28;20817;-31
2024/03/31 00:44:37;;;;;;;6.60;5.20;;;13.40;99.90;;;;;;4975502;28;20814;-29
2024/03/31 00:47:03;;;;;;;6.93;5.40;;;13.40;99.90;;;;;;4975564;28;20454;-31
2024/03/31 00:49:37;;;;;;;6.07;5.07;;;13.40;99.90;;;;;;4976908;28;20458;-31
2024/03/31 00:52:03;;;;;;;6.60;5.70;;;13.40;99.90;;;;;;4944994;28;20446;-28
2024/03/31 00:54:31;;;;;;;5.73;5.13;;;13.30;99.90;;;;;;4976382;28;20450;-32
2024/03/31 00:56:58;;;;;;;5.10;4.60;;;13.30;99.90;;;;;;4978185;28;20477;-30
2024/03/31 00:59:24;;;;;;;6.23;5.33;;;13.30;99.90;;;;;;4977758;28;20985;-28
2024/03/31 01:01:53;;;;;;;5.50;5.00;;;13.30;99.90;;;;;;4978497;28;20508;-30
2024/03/31 01:04:21;;;;;;;4.90;4.50;;;13.30;99.90;;;;;;4973366;28;20434;-28
2024/03/31 01:06:48;;;;;;;8.70;5.30;;;13.30;99.90;;;;;;4975058;28;20421;-32
2024/03/31 01:09:16;;;;;;;6.13;5.13;;;13.30;99.90;;;;;;4959449;28;20868;-29
2024/03/31 01:11:43;;;;;;;8.33;5.47;;;13.30;99.90;;;;;;4976389;28;20426;-32
2024/03/31 01:14:10;;;;;;;6.83;5.80;;;13.30;99.90;;;;;;4973041;28;20448;-34
2024/03/31 01:16:40;;;;;;;6.13;5.53;;;13.30;99.90;;;;;;4975936;28;20479;-29
2024/03/31 01:19:09;;;;;;;5.87;5.27;;;13.30;99.90;;;;;;4971615;28;21336;-32
2024/03/31 01:21:37;;;;;;;6.77;5.20;;;13.30;99.90;;;;;;4977883;28;21025;-29
2024/03/31 01:24:07;;;;;;;8.03;5.23;;;13.30;99.90;;;;;;4975675;28;20438;-30
2024/03/31 01:26:35;;;;;;;6.33;5.63;;;13.30;99.90;;;;;;4974057;28;20461;-30
2024/03/31 01:29:03;;;;;;;6.93;6.23;;;13.20;99.90;;;;;;4975808;28;20584;-35
2024/03/31 01:31:32;;;;;;;6.30;5.60;;;13.20;99.90;;;;;;4971731;28;20537;-28
2024/03/31 01:34:01;;;;;;;7.00;6.30;;;13.20;99.90;;;;;;4975977;28;20763;-31
2024/03/31 01:36:29;;;;;;;6.53;5.50;;;13.20;99.90;;;;;;4977446;28;20801;-31
2024/03/31 01:38:55;;;;;;;6.20;5.57;;;13.20;99.90;;;;;;4974885;28;20478;-30
2024/03/31 01:41:22;;;;;;;8.13;6.27;;;13.20;99.90;;;;;;4976069;28;20503;-29
2024/03/31 01:43:48;;;;;;;7.20;6.10;;;13.20;99.90;;;;;;4958725;28;20532;-32
2024/03/31 01:46:15;;;;;;;6.53;5.87;;;13.20;99.90;;;;;;4959696;28;20539;-31
2024/03/31 01:48:44;;;;;;;6.33;5.73;;;13.20;99.90;;;;;;4975469;28;20437;-30
2024/03/31 01:51:10;;;;;;;6.13;5.53;;;13.20;99.90;;;;;;4971255;28;20446;-32
2024/03/31 01:53:36;;;;;;;6.10;5.50;;;13.20;99.90;;;;;;4975207;28;20434;-30
2024/03/31 01:56:04;;;;;;;7.87;5.93;;;13.20;99.90;;;;;;4975515;28;21008;-30
2024/03/31 01:58:30;;;;;;;8.50;6.43;;;13.20;99.90;;;;;;4959903;28;20469;-32
2024/03/31 02:00:56;;;;;;;7.53;6.00;;;13.10;99.90;;;;;;4966833;28;20422;-31
2024/03/31 02:03:23;;;;;;;7.83;6.60;;;13.20;99.90;;;;;;4957699;28;20441;-34
2024/03/31 02:05:49;;;;;;;10.03;6.20;;;13.10;99.90;;;;;;4973691;28;21141;-30
2024/03/31 02:08:15;;;;;;;8.50;6.33;;;13.10;99.90;;;;;;4975953;28;20446;-31
2024/03/31 02:10:41;;;;;;;5.83;5.30;;;13.10;99.90;;;;;;4975227;28;20432;-31
2024/03/31 02:13:12;;;;;;;8.03;5.90;;;13.10;99.90;;;;;;4975979;28;20438;-32
2024/03/31 02:15:42;;;;;;;9.03;6.53;;;13.10;99.90;;;;;;4960643;28;20445;-31
2024/03/31 02:18:11;;;;;;;8.77;6.33;;;13.10;99.90;;;;;;4967648;28;20478;-32
2024/03/31 02:20:41;;;;;;;8.87;6.37;;;13.10;99.90;;;;;;4978118;28;20441;-34
2024/03/31 02:23:07;;;;;;;7.90;5.93;;;13.10;99.90;;;;;;4978605;28;20437;-31
2024/03/31 02:25:34;;;;;;;6.20;5.60;;;13.10;99.90;;;;;;4980898;28;20449;-33
2024/03/31 02:28:00;;;;;;;7.63;5.70;;;13.10;99.90;;;;;;4980136;28;20784;-34
2024/03/31 02:30:26;;;;;;;6.00;5.40;;;13.00;99.90;;;;;;4979680;28;20514;-28
2024/03/31 02:32:55;;;;;;;7.57;6.20;;;13.00;99.90;;;;;;4976953;28;20437;-31
2024/03/31 02:35:22;;;;;;;6.13;5.50;;;13.00;99.90;;;;;;4980121;28;20985;-30
2024/03/31 02:37:50;;;;;;;6.10;5.50;;;13.00;99.90;;;;;;4978992;28;20428;-30
2024/03/31 02:40:16;;;;;;;8.87;5.60;;;13.00;99.90;;;;;;4959484;28;20794;-32
2024/03/31 02:42:46;;;;;;;7.23;5.90;;;13.00;99.90;;;;;;4978380;28;21347;-31
2024/03/31 02:45:12;;;;;;;7.17;6.40;;;13.00;99.90;;;;;;4978034;28;20481;-30
2024/03/31 02:47:38;;;;;;;6.80;6.10;;;13.00;99.90;;;;;;4976646;28;20414;-32
2024/03/31 02:50:09;;;;;;;7.53;5.90;;;13.00;99.90;;;;;;4978548;28;20475;-32
2024/03/31 02:52:40;;;;;;;7.10;6.13;;;13.00;99.90;;;;;;4980631;28;20437;-32
2024/03/31 02:55:06;;;;;;;7.53;6.67;;;13.00;99.90;;;;;;4978198;28;20425;-31
2024/03/31 02:57:34;;;;;;;7.40;6.70;;;12.90;99.90;;;;;;4960973;28;20447;-36
2024/03/31 03:00:00;;;;;;;11.57;7.67;;;12.90;99.90;;;;;;4977906;28;20449;-31
2024/03/31 03:02:26;;;;;;;8.27;6.87;;;13.00;99.90;;;;;;4979319;28;20847;-33
2024/03/31 03:04:54;;;;;;;10.33;6.63;;;12.90;99.90;;;;;;4976739;28;20517;-33
2024/03/31 03:07:23;;;;;;;12.77;7.87;;;12.90;99.90;;;;;;4962499;28;20624;-31
2024/03/31 03:09:49;;;;;;;9.30;7.07;;;12.90;99.90;;;;;;4975888;28;20446;-32
2024/03/31 03:12:16;;;;;;;8.27;6.90;;;12.90;99.90;;;;;;4977981;28;21156;-34
2024/03/31 03:14:42;;;;;;;8.67;7.47;;;12.90;99.90;;;;;;4977135;28;20465;-28
2024/03/31 03:17:11;;;;;;;7.90;7.10;;;12.90;99.90;;;;;;4977166;28;20433;-29
2024/03/31 03:19:37;;;;;;;8.03;7.03;;;12.90;99.90;;;;;;4977927;28;20536;-28
2024/03/31 03:22:04;;;;;;;7.97;7.17;;;12.90;99.90;;;;;;4980659;28;20449;-30
2024/03/31 03:24:30;;;;;;;8.20;7.40;;;12.90;99.90;;;;;;4978098;28;20460;-31
2024/03/31 03:26:56;;;;;;;9.80;7.03;;;12.90;99.90;;;;;;4978104;28;21358;-30
2024/03/31 03:29:24;;;;;;;8.13;7.33;;;12.90;99.90;;;;;;5025020;23;21075;-72
2024/03/31 03:31:53;;;;;;;8.80;7.67;;;12.80;99.90;;;;;;5013407;28;20450;-72
2024/03/31 03:34:22;;;;;;;8.10;7.30;;;12.80;99.90;;;;;;5015533;28;20432;-72
2024/03/31 03:36:52;;;;;;;9.70;7.10;;;12.80;99.90;;;;;;5016162;28;20432;-72
2024/03/31 03:39:23;;;;;;;7.90;7.10;;;12.80;99.90;;;;;;5016374;28;20478;-72
2024/03/31 03:41:51;;;;;;;8.13;7.33;;;12.80;99.90;;;;;;5016415;28;20515;-72
2024/03/31 03:44:20;;;;;;;8.13;7.33;;;12.80;99.90;;;;;;5016442;28;20817;-71
2024/03/31 03:46:46;;;;;;;7.77;6.93;;;12.80;99.90;;;;;;4995862;28;20979;-72
2024/03/31 03:49:12;;;;;;;7.77;6.97;;;12.80;99.90;;;;;;5009003;28;20440;-72
2024/03/31 03:51:39;;;;;;;9.30;7.10;;;12.80;99.90;;;;;;5017804;28;21156;-72
2024/03/31 03:54:07;;;;;;;9.80;8.10;;;12.80;99.90;;;;;;5018641;28;20447;-72
2024/03/31 03:56:38;;;;;;;9.03;7.37;;;12.80;99.90;;;;;;5018137;28;20513;-72
2024/03/31 03:59:07;;;;;;;10.97;7.90;;;12.80;99.90;;;;;;5018882;28;20568;-72
2024/03/31 04:01:36;;;;;;;7.83;6.67;;;12.70;99.90;;;;;;4992025;28;20432;-72
2024/03/31 04:04:03;;;;;;;8.17;7.37;;;12.70;99.90;;;;;;4992439;28;20461;-68
2024/03/31 04:06:30;;;;;;;8.90;7.40;;;12.70;99.90;;;;;;5013671;28;20420;-68
2024/03/31 04:08:56;;;;;;;8.80;7.63;;;12.70;99.90;;;;;;4999809;28;20443;-68
2024/03/31 04:11:25;;;;;;;8.40;7.40;;;12.70;99.90;;;;;;4998415;28;20487;-68
2024/03/31 04:13:51;;;;;;;9.43;8.07;;;12.70;99.90;;;;;;4998612;28;20447;-68
2024/03/31 04:16:20;;;;;;;8.60;7.70;;;12.70;99.90;;;;;;5014119;28;20534;-68
2024/03/31 04:18:50;;;;;;;9.00;7.10;;;12.70;99.90;;;;;;5012821;28;20573;-68
2024/03/31 04:21:19;;;;;;;7.77;6.97;;;12.70;99.90;;;;;;4998814;28;20481;-69
2024/03/31 04:23:46;;;;;;;8.03;7.23;;;12.70;99.90;;;;;;5015151;28;21389;-69
2024/03/31 04:26:14;;;;;;;10.87;7.50;;;12.70;99.90;;;;;;5006562;28;20425;-68
2024/03/31 04:28:40;;;;;;;8.20;7.40;;;12.70;99.90;;;;;;5014313;28;20586;-68
2024/03/31 04:31:12;;;;;;;8.37;7.47;;;12.70;99.90;;;;;;5014599;28;20424;-68
2024/03/31 04:33:38;;;;;;;7.97;7.17;;;12.70;99.90;;;;;;4998498;28;20224;-68
2024/03/31 04:36:16;;;;;;;9.70;7.60;;;12.70;99.90;;;;;;4996132;28;20435;-68
2024/03/31 04:38:44;;;;;;;8.77;7.97;;;12.70;99.90;;;;;;5010887;28;20522;-68
2024/03/31 04:41:11;;;;;;;8.60;7.70;;;12.70;99.90;;;;;;5014795;28;21060;-68
2024/03/31 04:43:36;;;;;;;7.83;6.90;;;12.60;99.90;;;;;;4998253;28;20852;-68
2024/03/31 04:46:04;;;;;;;9.63;7.40;;;12.70;99.90;;;;;;5014329;28;21051;-68
2024/03/31 04:48:35;;;;;;;9.80;8.80;;;12.60;99.90;;;;;;5014457;28;20428;-68
2024/03/31 04:51:07;;;;;;;11.10;7.23;;;12.70;99.90;;;;;;5013630;28;21344;-68
2024/03/31 04:53:34;;;;;;;8.33;7.30;;;12.60;99.90;;;;;;4998341;28;20459;-68
2024/03/31 04:56:02;;;;;;;8.80;7.70;;;12.60;99.90;;;;;;4997802;28;20463;-68
2024/03/31 04:58:29;;;;;;;8.43;7.10;;;12.60;99.90;;;;;;5014385;28;21123;-68
2024/03/31 05:00:56;;;;;;;8.07;7.27;;;12.60;99.90;;;;;;4981837;28;20456;-68
2024/03/31 05:03:23;;;;;;;9.17;7.80;;;12.60;99.90;;;;;;5015133;28;20451;-68
2024/03/31 05:05:49;;;;;;;8.53;7.63;;;12.60;99.90;;;;;;5014206;28;20440;-68
2024/03/31 05:08:17;;;;;;;9.57;8.37;;;12.60;99.90;;;;;;4999286;28;20441;-68
2024/03/31 05:10:59;;;;;;;8.13;7.33;;;12.60;99.90;;;;;;5017311;28;20425;-68
2024/03/31 05:13:27;;;;;;;9.90;8.30;;;12.60;99.90;;;;;;4998896;28;20487;-68
2024/03/31 05:15:59;;;;;;;9.57;8.53;;;12.60;99.90;;;;;;4999909;28;20447;-72
2024/03/31 05:18:30;;;;;;;8.83;7.57;;;12.60;99.90;;;;;;5016886;28;20606;-72
2024/03/31 05:21:02;;;;;;;8.63;7.67;;;12.60;99.90;;;;;;4994527;28;20507;-73
2024/03/31 05:23:32;;;;;;;9.53;7.90;;;12.60;99.90;;;;;;4989511;28;20851;-72
2024/03/31 05:25:59;;;;;;;10.67;8.50;;;12.60;99.90;;;;;;5016370;28;20429;-72
2024/03/31 05:28:29;;;;;;;8.80;7.80;;;12.60;99.90;;;;;;5000941;28;21117;-72
2024/03/31 05:30:57;;;;;;;9.30;8.07;;;12.50;99.90;;;;;;5016134;28;21023;-73
2024/03/31 05:33:23;;;;;;;8.47;7.50;;;12.60;99.90;;;;;;5016121;28;21107;-73
2024/03/31 05:35:55;;;;;;;8.67;7.77;;;12.50;99.90;;;;;;5016026;28;20421;-73
2024/03/31 05:38:23;;;;;;;9.00;8.10;;;12.50;99.90;;;;;;4982239;28;20460;-72
2024/03/31 05:41:01;;;;;;;9.43;8.20;;;12.50;99.90;;;;;;4990568;28;20440;-72
2024/03/31 05:43:29;;;;;;;8.40;7.57;;;12.50;99.90;;;;;;4998055;28;20451;-71
2024/03/31 05:45:55;;;;;;;9.03;7.90;;;12.50;99.90;;;;;;5013824;28;20516;-72
2024/03/31 05:48:28;;;;;;;8.50;7.60;;;12.50;99.90;;;;;;5014308;28;20964;-72
2024/03/31 05:50:54;;;;;;;9.40;7.87;;;12.50;99.90;;;;;;4997876;28;20425;-73
2024/03/31 05:53:22;;;;;;;8.50;7.47;;;12.50;99.90;;;;;;5001159;28;20938;-72
2024/03/31 05:55:48;;;;;;;8.87;6.73;;;12.50;99.90;;;;;;4984440;28;20501;-72
2024/03/31 05:58:16;;;;;;;8.70;7.50;;;12.50;99.90;;;;;;5018337;28;20470;-72
2024/03/31 06:00:43;;;;;;;9.50;7.27;;;12.50;99.90;;;;;;4985262;28;20500;-72
2024/03/31 06:03:10;;;;;;;8.23;7.43;;;12.50;99.90;;;;;;5017860;28;20476;-71
2024/03/31 06:05:36;;;;;;;8.30;6.97;;;12.50;99.90;;;;;;5001258;28;20412;-72
2024/03/31 06:08:08;;;;;;;7.83;7.03;;;12.50;99.90;;;;;;5001977;28;20479;-73
2024/03/31 06:10:37;;;;;;;9.40;6.57;;;12.50;99.90;;;;;;5019626;28;20505;-73
2024/03/31 06:13:05;;;;;;;8.53;6.57;;;12.50;99.90;;;;;;4983981;28;20618;-73
2024/03/31 06:15:31;;;;;;;8.50;6.13;;;12.50;99.90;;;;;;4983361;28;20424;-72
2024/03/31 06:18:00;;;;;;;9.43;6.60;;;12.50;99.90;;;;;;5016943;28;20609;-73
2024/03/31 06:20:26;;;;;;;7.07;6.27;;;12.50;99.90;;;;;;5002020;28;20443;-71
2024/03/31 06:22:55;;;;;;;9.53;5.90;;;12.50;99.90;;;;;;5000856;28;20423;-72
2024/03/31 06:25:22;;;;;;;9.03;5.87;;;12.40;99.90;;;;;;5001300;28;20441;-72
2024/03/31 06:27:48;;;;;;;6.80;6.00;;;12.40;99.90;;;;;;5016255;28;20526;-73
2024/03/31 06:30:14;;;;;;;8.70;6.10;;;12.50;99.90;;;;;;5016935;28;21014;-71
2024/03/31 06:32:41;;;;;;;7.27;5.13;;;12.40;99.90;;;;;;5000330;28;20508;-71
2024/03/31 06:35:11;;;;;;;11.27;6.47;;;12.50;99.90;;;;;;5019075;28;20439;-72
2024/03/31 06:37:41;;;;;;;7.30;5.13;;;12.50;99.90;;;;;;5017681;28;20871;-71
2024/03/31 06:40:10;;;;;;;10.30;5.70;;;12.50;99.90;;;;;;5018748;28;20456;-71
2024/03/31 06:42:36;;;;;;;5.37;4.83;;;12.50;99.90;;;;;;5018076;28;20427;-70
2024/03/31 06:45:05;;;;;;;6.33;4.50;;;12.50;99.90;;;;;;5016460;28;20431;-70
2024/03/31 06:47:34;;;;;;;6.40;4.70;;;12.40;99.90;;;;;;4999818;28;20424;-72
2024/03/31 06:50:00;;;;;;;8.70;5.00;;;12.40;99.90;;;;;;5016991;28;20452;-70
2024/03/31 06:52:26;;;;;;;6.83;4.37;;;12.40;99.90;;;;;;5017477;28;20412;-71
2024/03/31 06:54:59;;;;;;;8.93;5.37;;;12.40;99.90;;;;;;5000780;28;20534;-72
2024/03/31 06:57:26;;;;;;;7.43;4.90;;;12.40;99.90;;;;;;4999742;28;20956;-70
2024/03/31 06:59:52;;;;;;;8.07;4.67;;;12.40;99.90;;;;;;5001706;28;21152;-71
2024/03/31 07:02:18;;;;;;;9.07;5.07;;;12.40;99.90;;;;;;4999430;28;20635;-70
2024/03/31 07:04:44;;;;;;;7.00;4.30;;;12.40;99.90;;;;;;5016724;28;20440;-72
2024/03/31 07:07:11;;;;;;;8.60;4.50;;;12.40;99.90;;;;;;5017376;28;20443;-70
2024/03/31 07:09:44;;;;;;;7.30;5.00;;;12.40;99.90;;;;;;5015112;28;20935;-70
2024/03/31 07:12:10;;;;;;;7.13;4.07;;;12.40;99.90;;;;;;4981004;28;20516;-73
2024/03/31 07:14:40;;;;;;;6.40;4.20;;;12.40;99.90;;;;;;5000584;28;20461;-71
2024/03/31 07:17:07;;;;;;;7.10;4.30;;;12.40;99.90;;;;;;5011569;28;20534;-71
2024/03/31 07:19:35;;;;;;;7.93;3.97;;;12.40;99.90;;;;;;5001082;28;21382;-71
2024/03/31 07:22:01;;;;;;;6.70;3.90;;;12.40;99.90;;;;;;4998902;28;20456;-71
2024/03/31 07:24:27;;;;;;;4.40;4.00;;;12.40;99.90;;;;;;5014598;28;20451;-71
2024/03/31 07:26:54;;;;;;;7.03;4.47;;;12.40;99.90;;;;;;4999158;28;20506;-73
2024/03/31 07:29:20;;;;;;;5.87;4.00;;;12.40;99.90;;;;;;5010333;28;20526;-71
2024/03/31 07:31:48;;;;;;;4.47;3.50;;;12.40;99.90;;;;;;4999398;28;20475;-71
2024/03/31 07:34:14;;;;;;;5.57;4.07;;;12.40;99.90;;;;;;5007143;28;20555;-72
2024/03/31 07:36:40;;;;;;;4.60;3.40;;;12.40;99.90;;;;;;5015645;28;20416;-71
2024/03/31 07:39:09;;;;;;;10.67;4.10;;;12.40;99.90;;;;;;4997502;28;20472;-67
2024/03/31 07:41:35;;;;;;;9.80;4.13;;;12.40;99.90;;;;;;5016287;28;20538;-71
2024/03/31 07:44:03;;;;;;;5.10;3.67;;;12.40;99.90;;;;;;4998678;28;20431;-70
2024/03/31 07:46:30;;;;;;;5.20;3.40;;;12.40;99.90;;;;;;5014497;28;20423;-71
2024/03/31 07:48:56;;;;;;;5.77;3.50;;;12.40;99.90;;;;;;5014666;28;20582;-71
2024/03/31 07:51:22;;;;;;;5.70;3.70;;;12.40;99.90;;;;;;4999019;28;20482;-71
2024/03/31 07:53:48;;;;;;;6.40;3.77;;;12.50;99.90;;;;;;4998748;28;20987;-71
2024/03/31 07:56:14;;;;;;;7.77;3.87;;;12.40;99.90;;;;;;5016834;28;21237;-72
2024/03/31 07:58:40;;;;;;;5.03;3.80;;;12.50;99.90;;;;;;5014282;28;20479;-73
2024/03/31 08:01:12;;;;;;;4.80;3.40;;;12.50;99.90;;;;;;5017144;28;20432;-71
2024/03/31 08:03:40;;;;;;;5.37;3.13;;;12.50;99.90;;;;;;5012128;28;20448;-73
2024/03/31 08:06:08;;;;;;;6.10;2.90;;;12.50;99.90;;;;;;5010203;28;21265;-72
2024/03/31 08:08:36;;;;;;;9.60;3.60;;;12.50;99.90;;;;;;5013810;28;20480;-73
2024/03/31 08:11:05;;;;;;;7.43;3.07;;;12.50;99.90;;;;;;5014109;28;20444;-71
2024/03/31 08:13:35;;;;;;;8.40;4.07;;;12.50;99.90;;;;;;4994378;28;20973;-71
2024/03/31 08:16:01;;;;;;;4.20;2.90;;;12.50;99.90;;;;;;4994773;28;20552;-71
2024/03/31 08:18:28;;;;;;;4.83;3.17;;;12.50;99.90;;;;;;5013512;28;20464;-71
2024/03/31 08:20:58;;;;;;;8.63;3.63;;;12.50;99.90;;;;;;5012597;28;21061;-67
2024/03/31 08:23:24;;;;;;;4.40;3.00;;;12.50;99.90;;;;;;5014479;28;20479;-67
2024/03/31 08:25:53;;;;;;;7.80;3.40;;;12.50;99.90;;;;;;5012536;28;20528;-68
2024/03/31 08:28:18;;;;;;;7.23;3.00;;;12.60;99.90;;;;;;5012504;28;20452;-67
2024/03/31 08:30:49;;;;;;;7.67;2.80;;;12.60;99.90;;;;;;5012416;28;20811;-70
2024/03/31 08:33:15;;;;;;;4.73;3.13;;;12.60;99.90;;;;;;5005853;28;20445;-68
2024/03/31 08:35:42;;;;;;;4.00;2.83;;;12.60;99.90;;;;;;5011646;28;20434;-68
2024/03/31 08:38:10;;;;;;;5.43;3.13;;;12.60;99.90;;;;;;5012243;28;20475;-69
2024/03/31 08:40:40;;;;;;;9.07;4.10;;;12.60;99.90;;;;;;4996054;28;20427;-68
2024/03/31 08:43:06;;;;;;;4.60;2.83;;;12.60;99.90;;;;;;4996460;28;20447;-70
2024/03/31 08:45:34;;;;;;;5.53;3.40;;;12.60;99.90;;;;;;5014754;28;20473;-72
2024/03/31 08:48:02;;;;;;;8.50;3.07;;;12.60;99.90;;;;;;5005558;28;20486;-71
2024/03/31 08:50:28;;;;;;;4.60;2.40;;;12.70;99.90;;;;;;4996197;28;20447;-64
2024/03/31 08:52:54;;;;;;;6.53;3.00;;;12.70;99.90;;;;;;5014952;28;20438;-70
2024/03/31 08:55:23;;;;;;;3.60;2.87;;;12.70;99.90;;;;;;5009864;28;20431;-70
2024/03/31 08:57:49;;;;;;;5.00;2.50;;;12.70;99.90;;;;;;5013978;28;20420;-69
2024/03/31 09:00:15;;;;;;;10.30;2.87;;;12.70;99.90;;;;;;5016945;28;20439;-70
2024/03/31 09:02:43;;;;;;;4.73;2.87;;;12.70;99.90;;;;;;5010455;28;21076;-69
2024/03/31 09:05:12;;;;;;;6.90;2.87;;;12.80;99.90;;;;;;5013266;28;20412;-68
2024/03/31 09:07:39;;;;;;;4.90;2.40;;;12.80;99.90;;;;;;4996747;28;20506;-69
2024/03/31 09:10:05;;;;;;;11.00;2.87;;;12.80;99.90;;;;;;5013001;28;20849;-71
2024/03/31 09:12:36;;;;;;;7.07;3.00;;;12.80;99.90;;;;;;4996943;28;20605;-72
2024/03/31 09:15:02;;;;;;;8.20;2.83;;;12.90;99.90;;;;;;5013155;28;20660;-74
2024/03/31 09:17:33;;;;;;;6.80;2.93;;;12.90;99.90;;;;;;5015660;28;20984;-72
2024/03/31 09:20:04;;;;;;;5.17;2.97;;;12.90;99.90;;;;;;4998622;28;20479;-72
2024/03/31 09:22:30;;;;;;;7.47;2.70;;;12.90;99.90;;;;;;5017166;28;20522;-72
2024/03/31 09:24:59;;;;;;;6.70;2.90;;;12.90;99.90;;;;;;5014370;28;20474;-72
2024/03/31 09:27:25;;;;;;;4.00;2.30;;;13.00;99.90;;;;;;5018196;28;20939;-71
2024/03/31 09:30:01;;;;;;;4.70;2.60;;;13.00;99.90;;;;;;4997995;28;20484;-72
2024/03/31 09:32:27;;;;;;;4.33;2.53;;;13.00;99.90;;;;;;5016135;28;21186;-71
2024/03/31 09:34:54;;;;;;;5.83;2.60;;;13.00;99.90;;;;;;4998711;28;20468;-71
2024/03/31 09:37:21;;;;;;;5.03;2.20;;;13.10;99.90;;;;;;4989585;28;20455;-71
2024/03/31 09:39:49;;;;;;;6.20;2.60;;;13.10;99.90;;;;;;4998946;28;20474;-72
2024/03/31 09:42:15;;;;;;;4.63;2.40;;;13.10;99.90;;;;;;5015802;28;21246;-73
2024/03/31 09:44:44;;;;;;;4.83;2.23;;;13.20;99.90;;;;;;4998530;28;20975;-72
2024/03/31 09:47:27;;;;;;;8.73;3.23;;;13.20;99.90;;;;;;5011312;28;20433;-73
2024/03/31 09:50:23;;;;;;;5.27;2.43;;;13.20;99.90;;;;;;5016377;28;20501;-72
2024/03/31 09:52:55;;;;;;;7.60;2.30;;;13.30;99.90;;;;;;5010736;28;21084;-73
2024/03/31 09:55:24;;;;;;;5.23;2.43;;;13.30;99.90;;;;;;4982936;28;20517;-73
2024/03/31 09:57:55;;;;;;;4.93;2.00;;;13.30;99.90;;;;;;5016728;28;21163;-72
2024/03/31 10:00:22;;;;;;;11.37;2.60;;;13.40;99.90;;;;;;5018215;28;21248;-72
2024/03/31 10:03:27;;;;;;;5.30;2.30;;;13.40;99.90;;;;;;5018850;28;20431;-72
2024/03/31 10:05:56;;;;;;;3.80;1.97;;;13.40;99.90;;;;;;5016329;28;21287;-72
2024/03/31 10:08:29;;;;;;;4.40;1.80;;;13.50;99.90;;;;;;5001593;28;20508;-72
2024/03/31 10:11:00;;;;;;;5.60;2.10;;;13.50;99.90;;;;;;5018956;28;20581;-72
2024/03/31 10:13:27;;;;;;;4.53;2.40;;;13.50;99.90;;;;;;5016878;28;21261;-72
2024/03/31 10:15:56;;;;;;;5.30;2.20;;;13.50;99.90;;;;;;5017818;28;20447;-72
2024/03/31 10:18:27;;;;;;;4.20;1.93;;;13.60;99.90;;;;;;5017217;28;20482;-73
2024/03/31 10:20:57;;;;;;;6.73;2.03;;;13.60;99.90;;;;;;5017203;28;20452;-72
2024/03/31 10:23:26;;;;;;;4.40;2.50;;;13.60;99.90;;;;;;5017058;28;20447;-73
2024/03/31 10:25:52;;;;;;;8.07;2.17;;;13.70;99.90;;;;;;5002532;28;20934;-73
2024/03/31 10:28:22;;;;;;;7.30;2.17;;;13.70;99.90;;;;;;5021767;28;20459;-73
2024/03/31 10:30:50;;;;;;;4.93;2.23;;;13.70;99.90;;;;;;5017420;28;20419;-72
2024/03/31 10:33:24;;;;;;;5.00;2.03;;;13.80;99.90;;;;;;5016392;28;20771;-72
2024/03/31 10:35:51;;;;;;;7.30;2.67;;;13.80;99.90;;;;;;5015451;28;21050;-73
2024/03/31 10:38:18;;;;;;;5.70;1.90;;;13.80;99.90;;;;;;5016679;28;20479;-72
2024/03/31 10:40:48;;;;;;;7.90;2.60;;;13.80;99.90;;;;;;5014471;28;20986;-72
2024/03/31 10:43:14;;;;;;;7.53;2.23;;;13.90;99.90;;;;;;5015331;28;20428;-73
2024/03/31 10:45:46;;;;;;;8.93;2.20;;;13.90;99.90;;;;;;5016375;28;20963;-75
2024/03/31 10:48:15;;;;;;;4.53;1.90;;;13.90;99.90;;;;;;4998055;28;20428;-73
2024/03/31 10:50:45;;;;;;;5.23;2.30;;;14.00;99.90;;;;;;5000139;28;20486;-73
2024/03/31 10:53:12;;;;;;;7.93;2.40;;;14.00;99.90;;;;;;4999368;28;20446;-72
2024/03/31 10:55:45;;;;;;;6.33;2.00;;;14.00;99.90;;;;;;5018586;28;20455;-73
2024/03/31 10:58:15;;;;;;;5.17;2.30;;;14.10;99.90;;;;;;4999541;28;20474;-73
2024/03/31 11:00:45;;;;;;;5.83;2.00;;;14.10;99.90;;;;;;5018539;28;21336;-71
2024/03/31 11:03:12;;;;;;;5.43;1.67;;;14.10;99.90;;;;;;5015619;28;21035;-71
2024/03/31 11:05:40;;;;;;;7.17;2.13;;;14.20;99.90;;;;;;5019716;28;21216;-74
2024/03/31 11:08:12;;;;;;;13.10;2.30;;;14.20;99.90;;;;;;5015840;28;20510;-73
2024/03/31 11:10:38;;;;;;;5.27;1.80;;;14.20;99.90;;;;;;5014490;28;20440;-72
2024/03/31 11:13:04;;;;;;;7.40;2.17;;;14.30;99.90;;;;;;5010708;28;20447;-74
2024/03/31 11:15:32;;;;;;;10.83;3.03;;;14.30;99.90;;;;;;5014282;28;20430;-74
2024/03/31 11:17:58;;;;;;;6.73;1.70;;;14.30;99.90;;;;;;5015803;28;20459;-73
2024/03/31 11:20:24;;;;;;;9.53;2.33;;;14.30;99.90;;;;;;5016483;28;20422;-74
2024/03/31 11:22:54;;;;;;;8.60;1.43;;;14.40;99.90;;;;;;5004447;28;20980;-74
2024/03/31 11:25:22;;;;;;;10.20;2.07;;;14.40;99.90;;;;;;5015346;28;20485;-74
2024/03/31 11:27:51;;;;;;;5.30;1.90;;;14.40;99.90;;;;;;5017240;28;20424;-72
2024/03/31 11:30:18;;;;;;;5.50;2.40;;;14.50;99.90;;;;;;5015168;28;20430;-74
2024/03/31 11:32:44;;;;;;;6.80;1.93;;;14.50;99.90;;;;;;5017021;28;20439;-73
2024/03/31 11:35:11;;;;;;;7.63;1.80;;;14.50;99.90;;;;;;4989319;28;21776;-71
2024/03/31 11:37:38;;;;;;;3.17;1.40;;;14.60;99.90;;;;;;5014703;28;20927;-71
2024/03/31 11:40:06;;;;;;;3.47;1.30;;;14.60;99.90;;;;;;5019119;28;20491;-69
2024/03/31 11:42:32;;;;;;;3.17;1.63;;;14.60;99.90;;;;;;4997803;28;20668;-69
2024/03/31 11:44:59;;;;;;;5.77;1.80;;;14.60;99.90;;;;;;5014340;28;20455;-67
2024/03/31 11:47:25;;;;;;;8.03;1.80;;;14.70;99.90;;;;;;4996950;28;20439;-69
2024/03/31 11:49:54;;;;;;;4.00;1.20;;;14.70;99.90;;;;;;5013603;28;20434;-67
2024/03/31 11:52:22;;;;;;;6.63;1.60;;;14.70;99.90;;;;;;5014259;28;20895;-69
2024/03/31 11:54:50;;;;;;;3.30;1.47;;;14.70;99.90;;;;;;5013187;28;20521;-70
2024/03/31 11:57:17;;;;;;;7.53;1.80;;;14.80;99.90;;;;;;5011007;28;20427;-69
2024/03/31 11:59:44;;;;;;;6.60;2.00;;;14.80;99.90;;;;;;5014523;28;20463;-69
2024/03/31 12:02:10;;;;;;;3.90;1.70;;;14.90;99.90;;;;;;5018390;28;20556;-70
2024/03/31 12:04:36;;;;;;;5.83;1.70;;;14.90;99.90;;;;;;5014777;28;21313;-69
2024/03/31 12:07:02;;;;;;;4.00;1.90;;;14.90;99.90;;;;;;5014106;28;20454;-70
2024/03/31 12:09:29;;;;;;;5.47;1.60;;;14.90;99.90;;;;;;5012216;28;20431;-69
2024/03/31 12:11:55;;;;;;;3.77;1.37;;;14.90;99.90;;;;;;5013307;28;20451;-69
2024/03/31 12:14:24;;;;;;;5.07;1.50;;;15.00;99.90;;;;;;5012254;28;20454;-70
2024/03/31 12:16:57;;;;;;;5.70;1.83;;;15.00;99.90;;;;;;5013589;28;21335;-70
2024/03/31 12:19:24;;;;;;;3.27;1.37;;;15.00;99.90;;;;;;5012100;28;20479;-69
2024/03/31 12:21:50;;;;;;;3.77;1.40;;;15.00;99.90;;;;;;4999032;28;20438;-70
2024/03/31 12:24:18;;;;;;;6.83;1.53;;;15.10;99.90;;;;;;4998855;28;20939;-71
2024/03/31 12:26:45;;;;;;;6.10;1.70;;;15.10;99.90;;;;;;5015720;28;20439;-69
2024/03/31 12:29:21;;;;;;;5.80;1.93;;;15.10;99.90;;;;;;5014651;28;20529;-70
2024/03/31 12:31:52;;;;;;;4.87;1.30;;;15.10;99.90;;;;;;5014171;28;20515;-71
2024/03/31 12:34:19;;;;;;;5.50;1.70;;;15.20;99.90;;;;;;5014088;28;20677;-71
2024/03/31 12:36:48;;;;;;;10.80;1.60;;;15.20;99.90;;;;;;4989601;28;20476;-67
2024/03/31 12:39:21;;;;;;;4.10;1.70;;;15.20;99.90;;;;;;5015521;28;20929;-72
2024/03/31 12:41:47;;;;;;;6.40;1.70;;;15.20;99.90;;;;;;5014268;28;20541;-70
2024/03/31 12:44:16;;;;;;;5.20;1.53;;;15.30;99.90;;;;;;4998158;28;20491;-69
2024/03/31 12:46:46;;;;;;;5.77;1.60;;;15.30;99.90;;;;;;5013748;28;20418;-71
2024/03/31 12:49:13;;;;;;;6.33;1.83;;;15.30;99.80;;;;;;4985136;28;20456;-70